createdAt,value
2023-03-05T00:02:38.593Z,60.65
2023-03-05T00:05:28.500Z,60.69
2023-03-05T00:08:18.382Z,60.82
2023-03-05T00:11:09.069Z,60.83
2023-03-05T00:13:58.354Z,60.64
2023-03-05T00:16:47.913Z,60.78
2023-03-05T00:19:36.502Z,60.58
2023-03-05T00:22:27.436Z,60.68
2023-03-05T00:25:16.104Z,60.73
2023-03-05T00:28:06.595Z,60.73
2023-03-05T00:30:55.211Z,60.64
2023-03-05T00:33:44.296Z,60.78
2023-03-05T00:36:33.903Z,60.81
2023-03-05T00:39:23.825Z,60.79
2023-03-05T00:42:13.331Z,60.76
2023-03-05T00:45:03.302Z,60.79
2023-03-05T00:47:51.834Z,60.65
2023-03-05T00:50:41.148Z,60.61
2023-03-05T00:53:29.696Z,60.69
2023-03-05T00:56:20.615Z,60.68
2023-03-05T00:59:09.245Z,60.70
2023-03-05T01:01:58.882Z,60.66
2023-03-05T01:04:47.558Z,60.72
2023-03-05T01:07:37.589Z,60.69
2023-03-05T01:10:28.022Z,60.96
2023-03-05T01:13:17.895Z,60.95
2023-03-05T01:16:07.603Z,60.97
2023-03-05T01:18:56.132Z,60.94
2023-03-05T01:21:45.536Z,60.90
2023-03-05T01:24:34.251Z,60.95
2023-03-05T01:27:23.575Z,61.12
2023-03-05T01:30:16.565Z,60.89
2023-03-05T01:33:05.550Z,60.91
2023-03-05T01:35:54.156Z,61.04
2023-03-05T01:38:44.691Z,61.20
2023-03-05T01:41:34.412Z,61.12
2023-03-05T01:44:25.179Z,61.14
2023-03-05T01:47:16.875Z,61.02
2023-03-05T01:50:07.173Z,61.08
2023-03-05T01:53:02.946Z,61.01
2023-03-05T01:55:51.569Z,60.98
2023-03-05T01:58:41.416Z,61.12
2023-03-05T02:01:33.349Z,61.12
2023-03-05T02:04:31.233Z,61.35
2023-03-05T02:07:20.910Z,61.39
2023-03-05T02:10:18.622Z,61.18
2023-03-05T02:13:10.704Z,61.61
2023-03-05T02:16:01.739Z,61.54
2023-03-05T02:18:50.404Z,61.49
2023-03-05T02:21:43.647Z,61.57
2023-03-05T02:24:37.846Z,61.51
2023-03-05T02:27:35.432Z,61.57
2023-03-05T02:30:24.711Z,61.57
2023-03-05T02:33:16.344Z,61.80
2023-03-05T02:36:06.534Z,61.88
2023-03-05T02:38:59.115Z,61.79
2023-03-05T02:41:48.851Z,61.74
2023-03-05T02:44:37.527Z,61.83
2023-03-05T02:47:27.152Z,61.88
2023-03-05T02:50:16.032Z,61.85
2023-03-05T02:53:05.667Z,62.03
2023-03-05T02:55:56.306Z,62.03
2023-03-05T02:58:45.540Z,62.24
2023-03-05T03:01:34.339Z,62.11
2023-03-05T03:04:23.937Z,62.13
2023-03-05T03:07:12.639Z,62.43
2023-03-05T03:10:02.052Z,62.44
2023-03-05T03:12:52.275Z,62.40
2023-03-05T03:15:42.602Z,62.36
2023-03-05T03:18:31.681Z,62.52
2023-03-05T03:21:24.251Z,62.54
2023-03-05T03:24:12.911Z,62.67
2023-03-05T03:27:02.002Z,62.81
2023-03-05T03:29:52.860Z,62.73
2023-03-05T03:32:42.746Z,62.90
2023-03-05T03:35:32.179Z,62.73
2023-03-05T03:38:22.063Z,62.71
2023-03-05T03:41:11.274Z,63.00
2023-03-05T03:44:00.611Z,62.98
2023-03-05T03:46:52.274Z,62.80
2023-03-05T03:49:41.553Z,62.83
2023-03-05T03:52:30.228Z,62.95
2023-03-05T03:55:20.443Z,62.97
2023-03-05T03:58:09.850Z,62.97
2023-03-05T04:00:58.912Z,63.11
2023-03-05T04:03:50.227Z,62.94
2023-03-05T04:06:39.308Z,63.02
2023-03-05T04:09:27.978Z,63.23
2023-03-05T04:12:19.469Z,63.19
2023-03-05T04:15:09.470Z,63.25
2023-03-05T04:17:58.895Z,63.09
2023-03-05T04:20:49.282Z,63.40
2023-03-05T04:23:38.245Z,63.34
2023-03-05T04:26:28.495Z,63.30
2023-03-05T04:29:17.154Z,63.30
2023-03-05T04:32:07.117Z,63.40
2023-03-05T04:34:55.764Z,63.48
2023-03-05T04:37:47.559Z,63.47
2023-03-05T04:40:36.873Z,63.55
2023-03-05T04:43:26.043Z,63.56
2023-03-05T04:46:15.175Z,63.60
2023-03-05T04:49:04.008Z,63.61
2023-03-05T04:51:53.731Z,63.66
2023-03-05T04:54:45.702Z,63.70
2023-03-05T04:57:35.144Z,63.71
2023-03-05T05:00:23.868Z,63.76
2023-03-05T05:03:14.089Z,63.87
2023-03-05T05:06:03.061Z,63.76
2023-03-05T05:08:52.622Z,63.76
2023-03-05T05:11:43.130Z,63.82
2023-03-05T05:14:31.797Z,63.93
2023-03-05T05:17:21.380Z,63.97
2023-03-05T05:20:13.015Z,64.30
2023-03-05T05:23:03.179Z,64.19
2023-03-05T05:25:58.049Z,64.14
2023-03-05T05:28:49.444Z,64.27
2023-03-05T05:31:38.461Z,64.20
2023-03-05T05:34:27.365Z,64.15
2023-03-05T05:37:16.088Z,64.19
2023-03-05T05:40:07.015Z,64.29
2023-03-05T05:42:56.053Z,64.29
2023-03-05T05:45:46.634Z,64.50
2023-03-05T05:48:37.289Z,64.22
2023-03-05T05:51:26.656Z,64.18
2023-03-05T05:54:15.983Z,64.33
2023-03-05T05:57:05.272Z,64.28
2023-03-05T05:59:53.912Z,64.38
2023-03-05T06:02:45.028Z,64.24
2023-03-05T06:05:33.661Z,64.36
2023-03-05T06:08:23.322Z,64.15
2023-03-05T06:11:12.278Z,64.13
2023-03-05T06:14:03.180Z,63.99
2023-03-05T06:16:52.296Z,64.27
2023-03-05T06:19:42.750Z,64.16
2023-03-05T06:22:31.528Z,64.32
2023-03-05T06:25:24.646Z,64.24
2023-03-05T06:28:17.189Z,64.39
2023-03-05T06:31:13.016Z,64.31
2023-03-05T06:34:03.231Z,64.22
2023-03-05T06:36:55.872Z,64.31
2023-03-05T06:39:44.760Z,64.22
2023-03-05T06:42:35.294Z,64.06
2023-03-05T06:45:24.026Z,64.25
2023-03-05T06:48:14.162Z,64.22
2023-03-05T06:51:05.159Z,64.29
2023-03-05T06:53:56.675Z,64.20
2023-03-05T06:56:47.427Z,64.27
2023-03-05T06:59:36.511Z,64.27
2023-03-05T07:02:25.697Z,64.31
2023-03-05T07:05:14.621Z,64.20
2023-03-05T07:08:04.621Z,64.38
2023-03-05T07:10:55.217Z,64.30
2023-03-05T07:13:44.460Z,64.16
2023-03-05T07:16:35.229Z,64.19
2023-03-05T07:19:24.036Z,64.34
2023-03-05T07:22:12.668Z,64.22
2023-03-05T07:25:02.210Z,64.29
2023-03-05T07:27:52.622Z,64.06
2023-03-05T07:30:41.368Z,64.11
2023-03-05T07:33:30.203Z,63.91
2023-03-05T07:36:19.130Z,64.16
2023-03-05T07:39:07.948Z,64.07
2023-03-05T07:41:57.462Z,64.11
2023-03-05T07:44:53.091Z,63.93
2023-03-05T07:47:42.471Z,63.90
2023-03-05T07:50:32.992Z,63.95
2023-03-05T07:53:22.268Z,64.00
2023-03-05T07:56:11.249Z,63.92
2023-03-05T07:59:01.800Z,63.81
2023-03-05T08:01:51.809Z,63.73
2023-03-05T08:04:42.233Z,63.91
2023-03-05T08:07:31.374Z,63.81
2023-03-05T08:10:20.280Z,63.87
2023-03-05T08:13:09.582Z,63.87
2023-03-05T08:15:58.359Z,63.91
2023-03-05T08:18:49.109Z,63.92
2023-03-05T08:21:38.388Z,63.77
2023-03-05T08:24:29.699Z,63.85
2023-03-05T08:27:20.030Z,63.75
2023-03-05T08:30:12.378Z,63.77
2023-03-05T08:33:00.998Z,63.82
2023-03-05T08:35:51.467Z,63.81
2023-03-05T08:38:40.732Z,63.96
2023-03-05T08:41:29.563Z,63.80
2023-03-05T08:44:19.375Z,63.85
2023-03-05T08:47:08.180Z,63.76
2023-03-05T08:49:58.790Z,63.77
2023-03-05T08:52:49.162Z,63.83
2023-03-05T08:55:38.515Z,63.88
2023-03-05T08:58:27.838Z,63.88
2023-03-05T09:01:17.382Z,63.71
2023-03-05T09:04:06.101Z,63.77
2023-03-05T09:06:54.735Z,63.69
2023-03-05T09:09:44.818Z,63.72
2023-03-05T09:12:33.821Z,63.79
2023-03-05T09:15:22.992Z,63.69
2023-03-05T09:18:11.712Z,63.75
2023-03-05T09:21:05.898Z,63.69
2023-03-05T09:23:59.538Z,63.71
2023-03-05T09:26:49.731Z,63.90
2023-03-05T09:29:40.821Z,63.76
2023-03-05T09:32:31.559Z,63.66
2023-03-05T09:35:20.487Z,63.76
2023-03-05T09:38:09.144Z,63.85
2023-03-05T09:41:06.048Z,63.77
2023-03-05T09:44:06.096Z,63.87
2023-03-05T09:46:57.616Z,63.91
2023-03-05T09:49:58.027Z,63.89
2023-03-05T09:52:51.570Z,64.06
2023-03-05T09:55:44.140Z,64.02
2023-03-05T09:58:38.732Z,64.04
2023-03-05T10:01:36.533Z,63.99
2023-03-05T10:04:28.590Z,63.99
2023-03-05T10:07:22.372Z,63.92
2023-03-05T10:10:15.346Z,63.88
2023-03-05T10:13:16.454Z,63.79
2023-03-05T10:16:18.836Z,63.97
2023-03-05T10:19:16.021Z,63.85
2023-03-05T10:22:15.617Z,63.86
2023-03-05T10:25:16.481Z,63.82
2023-03-05T10:28:10.646Z,63.58
2023-03-05T10:31:12.609Z,63.55
2023-03-05T10:34:31.983Z,63.49
2023-03-05T10:37:47.101Z,63.38
2023-03-05T10:40:40.274Z,63.29
2023-03-05T10:43:38.486Z,63.27
2023-03-05T10:46:33.729Z,63.24
2023-03-05T10:49:29.472Z,62.99
2023-03-05T10:52:21.094Z,63.04
2023-03-05T10:55:15.577Z,62.97
2023-03-05T10:58:12.747Z,62.76
2023-03-05T11:01:05.334Z,62.73
2023-03-05T11:03:57.822Z,62.60
2023-03-05T11:06:47.919Z,62.51
2023-03-05T11:09:37.141Z,62.39
2023-03-05T11:12:28.245Z,62.44
2023-03-05T11:15:27.793Z,62.33
2023-03-05T11:18:24.451Z,62.52
2023-03-05T11:21:19.587Z,62.19
2023-03-05T11:24:14.888Z,62.17
2023-03-05T11:27:04.244Z,62.16
2023-03-05T11:29:53.884Z,61.89
2023-03-05T11:32:42.833Z,62.03
2023-03-05T11:35:34.380Z,61.87
2023-03-05T11:38:27.962Z,61.67
2023-03-05T11:41:21.884Z,61.56
2023-03-05T11:44:15.810Z,61.32
2023-03-05T11:47:16.070Z,61.46
2023-03-05T11:50:13.550Z,61.06
2023-03-05T11:53:07.408Z,61.05
2023-03-05T11:56:01.004Z,60.88
2023-03-05T11:58:55.880Z,60.82
2023-03-05T12:01:48.940Z,60.67
2023-03-05T12:04:37.811Z,60.56
2023-03-05T12:07:35.822Z,60.39
2023-03-05T12:10:26.046Z,60.06
2023-03-05T12:13:24.985Z,60.30
2023-03-05T12:16:25.805Z,59.88
2023-03-05T12:19:34.874Z,59.94
2023-03-05T12:22:25.734Z,59.95
2023-03-05T12:25:26.204Z,59.59
2023-03-05T12:28:17.170Z,59.68
2023-03-05T12:31:06.956Z,59.63
2023-03-05T12:33:58.035Z,59.56
2023-03-05T12:36:46.692Z,59.36
2023-03-05T12:39:50.076Z,59.52
2023-03-05T12:42:47.976Z,59.27
2023-03-05T12:45:41.426Z,59.23
2023-03-05T12:48:46.126Z,59.11
2023-03-05T12:51:39.319Z,59.32
2023-03-05T12:54:33.186Z,59.34
2023-03-05T12:57:26.462Z,59.19
2023-03-05T13:00:21.662Z,59.42
2023-03-05T13:03:15.924Z,59.40
2023-03-05T13:06:07.150Z,59.38
2023-03-05T13:09:03.151Z,59.40
2023-03-05T13:11:55.566Z,59.21
2023-03-05T13:14:45.928Z,59.28
2023-03-05T13:17:39.550Z,59.12
2023-03-05T13:20:34.325Z,59.08
2023-03-05T13:23:25.182Z,59.04
2023-03-05T13:26:19.119Z,58.68
2023-03-05T13:29:11.388Z,58.71
2023-03-05T13:32:03.841Z,58.46
2023-03-05T13:34:55.496Z,58.24
2023-03-05T13:37:45.270Z,58.24
2023-03-05T13:40:35.237Z,58.16
2023-03-05T13:43:25.661Z,57.87
2023-03-05T13:46:15.049Z,57.79
2023-03-05T13:49:23.620Z,57.59
2023-03-05T13:52:16.833Z,57.46
2023-03-05T13:55:13.133Z,57.29
2023-03-05T13:58:02.706Z,57.29
2023-03-05T14:01:04.543Z,57.02
2023-03-05T14:03:56.456Z,56.87
2023-03-05T14:06:50.538Z,56.60
2023-03-05T14:09:49.994Z,56.14
2023-03-05T14:12:43.029Z,56.17
2023-03-05T14:15:35.351Z,56.14
2023-03-05T14:18:25.340Z,56.06
2023-03-05T14:21:14.554Z,55.95
2023-03-05T14:24:15.394Z,55.91
2023-03-05T14:27:09.133Z,55.60
2023-03-05T14:29:57.845Z,55.65
2023-03-05T14:32:47.619Z,55.55
2023-03-05T14:35:37.856Z,55.44
2023-03-05T14:38:31.538Z,55.50
2023-03-05T14:41:22.793Z,55.38
2023-03-05T14:44:17.121Z,55.26
2023-03-05T14:47:05.791Z,55.18
2023-03-05T14:49:54.959Z,55.25
2023-03-05T14:52:46.170Z,55.14
2023-03-05T14:55:38.228Z,54.97
2023-03-05T14:58:32.188Z,54.74
2023-03-05T15:01:20.825Z,54.70
2023-03-05T15:04:09.853Z,54.54
2023-03-05T15:06:59.570Z,54.38
2023-03-05T15:09:49.819Z,54.33
2023-03-05T15:12:39.070Z,54.43
2023-03-05T15:15:28.303Z,54.22
2023-03-05T15:18:20.002Z,54.08
2023-03-05T15:21:08.622Z,54.12
2023-03-05T15:23:58.052Z,54.02
2023-03-05T15:26:50.138Z,54.08
2023-03-05T15:29:40.245Z,54.10
2023-03-05T15:32:30.580Z,54.29
2023-03-05T15:35:19.411Z,53.92
2023-03-05T15:38:08.173Z,54.02
2023-03-05T15:41:01.271Z,53.97
2023-03-05T15:43:51.746Z,53.99
2023-03-05T15:46:41.757Z,53.99
2023-03-05T15:49:30.829Z,53.87
2023-03-05T15:52:19.910Z,53.92
2023-03-05T15:55:09.829Z,53.95
2023-03-05T15:57:59.498Z,53.88
2023-03-05T16:00:49.593Z,54.05
2023-03-05T16:03:39.937Z,54.05
2023-03-05T16:06:56.952Z,54.09
2023-03-05T16:10:01.963Z,54.13
2023-03-05T16:12:56.877Z,54.05
2023-03-05T16:15:53.225Z,54.12
2023-03-05T16:18:45.882Z,53.97
2023-03-05T16:21:35.778Z,54.16
2023-03-05T16:24:24.920Z,53.96
2023-03-05T16:27:13.730Z,54.14
2023-03-05T16:30:06.307Z,54.09
2023-03-05T16:32:55.984Z,54.26
2023-03-05T16:35:46.126Z,54.14
2023-03-05T16:38:35.529Z,54.21
2023-03-05T16:41:27.230Z,54.23
2023-03-05T16:44:15.987Z,54.27
2023-03-05T16:47:04.929Z,54.30
2023-03-05T16:49:55.323Z,54.29
2023-03-05T16:52:52.360Z,54.30
2023-03-05T16:55:41.788Z,54.47
2023-03-05T16:58:31.007Z,54.51
2023-03-05T17:01:22.009Z,54.63
2023-03-05T17:04:16.810Z,54.56
2023-03-05T17:07:06.514Z,54.71
2023-03-05T17:10:02.685Z,54.70
2023-03-05T17:12:53.216Z,54.90
2023-03-05T17:15:47.991Z,54.87
2023-03-05T17:18:46.641Z,54.86
2023-03-05T17:21:46.461Z,54.90
2023-03-05T17:24:38.574Z,54.91
2023-03-05T17:27:29.593Z,55.18
2023-03-05T17:30:23.234Z,55.01
2023-03-05T17:33:13.033Z,55.09
2023-03-05T17:36:02.888Z,55.18
2023-03-05T17:38:52.439Z,55.19
2023-03-05T17:41:41.579Z,55.19
2023-03-05T17:44:34.139Z,55.16
2023-03-05T17:47:24.065Z,55.17
2023-03-05T17:50:15.456Z,55.39
2023-03-05T17:53:05.254Z,55.35
2023-03-05T17:55:56.396Z,55.43
2023-03-05T17:58:45.520Z,55.42
2023-03-05T18:01:36.668Z,55.45
2023-03-05T18:04:26.421Z,55.50
2023-03-05T18:07:15.135Z,55.50
2023-03-05T18:10:06.883Z,55.42
2023-03-05T18:13:03.768Z,55.52
2023-03-05T18:15:53.353Z,55.42
2023-03-05T18:18:44.265Z,55.51
2023-03-05T18:21:36.187Z,55.71
2023-03-05T18:24:25.314Z,55.58
2023-03-05T18:27:14.099Z,55.74
2023-03-05T18:30:03.833Z,55.72
2023-03-05T18:32:52.731Z,55.57
2023-03-05T18:35:44.233Z,55.79
2023-03-05T18:38:33.916Z,55.72
2023-03-05T18:41:27.655Z,55.74
2023-03-05T18:44:19.746Z,55.85
2023-03-05T18:47:09.280Z,55.88
2023-03-05T18:49:59.433Z,55.80
2023-03-05T18:52:50.066Z,56.00
2023-03-05T18:55:38.773Z,55.89
2023-03-05T18:58:28.233Z,56.35
2023-03-05T19:01:18.135Z,56.14
2023-03-05T19:04:07.759Z,56.06
2023-03-05T19:06:56.786Z,56.01
2023-03-05T19:09:58.967Z,56.00
2023-03-05T19:12:50.986Z,56.16
2023-03-05T19:15:41.791Z,56.04
2023-03-05T19:18:33.724Z,56.19
2023-03-05T19:21:22.923Z,56.03
2023-03-05T19:24:12.510Z,56.06
2023-03-05T19:27:10.125Z,56.03
2023-03-05T19:30:00.100Z,56.14
2023-03-05T19:32:49.686Z,56.06
2023-03-05T19:35:38.852Z,56.17
2023-03-05T19:38:28.057Z,56.17
2023-03-05T19:41:17.991Z,56.11
2023-03-05T19:44:09.300Z,56.23
2023-03-05T19:46:58.008Z,56.26
2023-03-05T19:49:47.961Z,56.43
2023-03-05T19:52:39.173Z,56.23
2023-03-05T19:55:28.158Z,56.32
2023-03-05T19:58:17.465Z,56.28
2023-03-05T20:01:13.784Z,56.42
2023-03-05T20:04:04.103Z,56.47
2023-03-05T20:06:59.198Z,56.47
2023-03-05T20:09:50.648Z,56.62
2023-03-05T20:12:39.394Z,56.63
2023-03-05T20:15:29.731Z,56.57
2023-03-05T20:18:19.901Z,56.68
2023-03-05T20:21:09.930Z,56.69
2023-03-05T20:24:00.656Z,56.91
2023-03-05T20:26:51.453Z,56.92
2023-03-05T20:29:40.184Z,56.90
2023-03-05T20:32:29.872Z,56.79
2023-03-05T20:35:19.973Z,56.86
2023-03-05T20:38:20.803Z,57.08
2023-03-05T20:41:12.212Z,56.91
2023-03-05T20:44:06.327Z,57.22
2023-03-05T20:47:13.051Z,57.01
2023-03-05T20:50:01.931Z,57.13
2023-03-05T20:52:52.807Z,57.36
2023-03-05T20:55:41.649Z,57.31
2023-03-05T20:58:31.269Z,57.37
2023-03-05T21:01:20.286Z,57.57
2023-03-05T21:04:09.342Z,57.58
2023-03-05T21:06:58.134Z,57.61
2023-03-05T21:09:48.614Z,57.54
2023-03-05T21:12:37.249Z,57.60
2023-03-05T21:15:27.829Z,57.67
2023-03-05T21:18:16.438Z,57.67
2023-03-05T21:21:07.384Z,57.81
2023-03-05T21:23:56.061Z,57.92
2023-03-05T21:26:46.944Z,58.19
2023-03-05T21:29:35.613Z,58.36
2023-03-05T21:32:25.091Z,58.21
2023-03-05T21:35:17.988Z,58.39
2023-03-05T21:38:08.930Z,58.43
2023-03-05T21:40:59.693Z,58.63
2023-03-05T21:43:50.480Z,58.83
2023-03-05T21:46:42.702Z,58.88
2023-03-05T21:49:32.338Z,59.01
2023-03-05T21:52:22.462Z,59.20
2023-03-05T21:55:14.216Z,59.31
2023-03-05T21:58:03.812Z,59.16
2023-03-05T22:00:55.350Z,59.03
2023-03-05T22:03:44.092Z,59.08
2023-03-05T22:06:33.136Z,58.89
2023-03-05T22:09:21.740Z,59.04
2023-03-05T22:12:15.513Z,58.99
2023-03-05T22:15:04.494Z,59.03
2023-03-05T22:17:55.893Z,58.81
2023-03-05T22:20:44.949Z,58.95
2023-03-05T22:23:35.501Z,59.08
2023-03-05T22:26:24.992Z,59.02
2023-03-05T22:29:15.277Z,59.06
2023-03-05T22:32:03.959Z,58.81
2023-03-05T22:34:57.948Z,58.91
2023-03-05T22:37:47.938Z,59.01
2023-03-05T22:40:37.469Z,59.06
2023-03-05T22:43:26.566Z,58.87
2023-03-05T22:46:17.330Z,58.83
2023-03-05T22:49:07.617Z,58.90
2023-03-05T22:51:57.693Z,58.78
2023-03-05T22:54:48.045Z,58.90
2023-03-05T22:57:36.738Z,58.87
2023-03-05T23:00:27.156Z,58.80
2023-03-05T23:03:16.548Z,58.89
2023-03-05T23:06:06.340Z,58.96
2023-03-05T23:08:57.600Z,59.10
2023-03-05T23:11:46.193Z,59.01
2023-03-05T23:14:35.253Z,58.97
2023-03-05T23:17:23.936Z,58.96
2023-03-05T23:20:17.129Z,58.98
2023-03-05T23:23:05.815Z,58.79
2023-03-05T23:25:57.267Z,58.98
2023-03-05T23:28:46.313Z,58.92
2023-03-05T23:31:35.254Z,58.99
2023-03-05T23:34:24.324Z,59.00
2023-03-05T23:37:13.178Z,58.90
2023-03-05T23:40:03.947Z,58.86
2023-03-05T23:42:54.413Z,58.89
2023-03-05T23:45:45.267Z,58.85
2023-03-05T23:48:34.849Z,58.93
2023-03-05T23:51:24.066Z,58.90
2023-03-05T23:54:12.702Z,58.82
2023-03-05T23:57:01.956Z,58.93
2023-03-05T23:59:52.410Z,58.96
